sensor_id;sensor_type;location;lat;lon;timestamp;P1;durP1;ratioP1;P2;durP2;ratioP2
7255;SDS011;3669;49.200;9.242;2023-06-26T00:00:46;5.20;;;4.80;;
7255;SDS011;3669;49.200;9.242;2023-06-26T00:03:14;4.80;;;4.40;;
7255;SDS011;3669;49.200;9.242;2023-06-26T00:05:41;4.70;;;4.38;;
7255;SDS011;3669;49.200;9.242;2023-06-26T00:08:09;4.45;;;4.10;;
7255;SDS011;3669;49.200;9.242;2023-06-26T00:10:36;4.88;;;4.47;;
7255;SDS011;3669;49.200;9.242;2023-06-26T00:13:03;5.05;;;4.65;;
7255;SDS011;3669;49.200;9.242;2023-06-26T00:15:30;5.07;;;4.68;;
7255;SDS011;3669;49.200;9.242;2023-06-26T00:17:58;5.25;;;4.72;;
7255;SDS011;3669;49.200;9.242;2023-06-26T00:20:25;5.20;;;4.80;;
7255;SDS011;3669;49.200;9.242;2023-06-26T00:22:54;4.95;;;4.55;;
7255;SDS011;3669;49.200;9.242;2023-06-26T00:25:24;5.07;;;4.68;;
7255;SDS011;3669;49.200;9.242;2023-06-26T00:27:51;4.45;;;4.15;;
7255;SDS011;3669;49.200;9.242;2023-06-26T00:30:19;5.10;;;4.70;;
7255;SDS011;3669;49.200;9.242;2023-06-26T00:32:45;4.97;;;4.43;;
7255;SDS011;3669;49.200;9.242;2023-06-26T00:35:12;5.20;;;4.80;;
7255;SDS011;3669;49.200;9.242;2023-06-26T00:37:39;5.30;;;4.90;;
7255;SDS011;3669;49.200;9.242;2023-06-26T00:40:06;4.78;;;4.38;;
7255;SDS011;3669;49.200;9.242;2023-06-26T00:42:34;5.00;;;4.60;;
7255;SDS011;3669;49.200;9.242;2023-06-26T00:45:01;5.28;;;4.88;;
7255;SDS011;3669;49.200;9.242;2023-06-26T00:47:28;4.93;;;4.53;;
7255;SDS011;3669;49.200;9.242;2023-06-26T00:49:55;4.85;;;4.45;;
7255;SDS011;3669;49.200;9.242;2023-06-26T00:52:22;5.07;;;4.68;;
7255;SDS011;3669;49.200;9.242;2023-06-26T00:54:49;5.25;;;4.85;;
7255;SDS011;3669;49.200;9.242;2023-06-26T00:57:20;5.20;;;4.80;;
7255;SDS011;3669;49.200;9.242;2023-06-26T00:59:47;4.90;;;4.50;;
7255;SDS011;3669;49.200;9.242;2023-06-26T01:02:15;5.03;;;4.63;;
7255;SDS011;3669;49.200;9.242;2023-06-26T01:04:47;4.97;;;4.57;;
7255;SDS011;3669;49.200;9.242;2023-06-26T01:07:14;5.22;;;4.82;;
7255;SDS011;3669;49.200;9.242;2023-06-26T01:09:42;5.30;;;4.90;;
7255;SDS011;3669;49.200;9.242;2023-06-26T01:12:09;5.22;;;4.82;;
7255;SDS011;3669;49.200;9.242;2023-06-26T01:14:36;4.88;;;4.47;;
7255;SDS011;3669;49.200;9.242;2023-06-26T01:17:03;5.13;;;4.72;;
7255;SDS011;3669;49.200;9.242;2023-06-26T01:19:30;13.98;;;13.27;;
7255;SDS011;3669;49.200;9.242;2023-06-26T01:22:02;28.23;;;26.92;;
7255;SDS011;3669;49.200;9.242;2023-06-26T01:24:42;23.75;;;22.40;;
7255;SDS011;3669;49.200;9.242;2023-06-26T01:27:12;38.78;;;36.92;;
7255;SDS011;3669;49.200;9.242;2023-06-26T01:29:40;21.23;;;20.23;;
7255;SDS011;3669;49.200;9.242;2023-06-26T01:32:06;5.95;;;5.50;;
7255;SDS011;3669;49.200;9.242;2023-06-26T01:34:34;5.00;;;4.60;;
7255;SDS011;3669;49.200;9.242;2023-06-26T01:37:01;5.30;;;4.90;;
7255;SDS011;3669;49.200;9.242;2023-06-26T01:39:28;4.80;;;4.43;;
7255;SDS011;3669;49.200;9.242;2023-06-26T01:41:55;5.38;;;4.88;;
7255;SDS011;3669;49.200;9.242;2023-06-26T01:44:27;5.30;;;4.90;;
7255;SDS011;3669;49.200;9.242;2023-06-26T01:55:03;4.82;;;4.53;;
7255;SDS011;3669;49.200;9.242;2023-06-26T01:57:32;5.10;;;4.60;;
7255;SDS011;3669;49.200;9.242;2023-06-26T02:00:01;5.38;;;4.97;;
7255;SDS011;3669;49.200;9.242;2023-06-26T02:02:29;5.40;;;5.00;;
7255;SDS011;3669;49.200;9.242;2023-06-26T02:04:56;4.97;;;4.57;;
7255;SDS011;3669;49.200;9.242;2023-06-26T02:07:23;5.68;;;5.18;;
7255;SDS011;3669;49.200;9.242;2023-06-26T02:09:50;5.70;;;5.20;;
7255;SDS011;3669;49.200;9.242;2023-06-26T02:12:17;5.32;;;4.93;;
7255;SDS011;3669;49.200;9.242;2023-06-26T02:14:44;4.90;;;4.50;;
7255;SDS011;3669;49.200;9.242;2023-06-26T02:17:11;5.57;;;5.18;;
7255;SDS011;3669;49.200;9.242;2023-06-26T02:19:38;5.10;;;4.70;;
7255;SDS011;3669;49.200;9.242;2023-06-26T02:22:16;5.07;;;4.68;;
7255;SDS011;3669;49.200;9.242;2023-06-26T02:24:44;5.15;;;4.78;;
7255;SDS011;3669;49.200;9.242;2023-06-26T02:27:11;5.30;;;4.80;;
7255;SDS011;3669;49.200;9.242;2023-06-26T02:29:38;5.10;;;4.70;;
7255;SDS011;3669;49.200;9.242;2023-06-26T02:32:05;5.97;;;5.43;;
7255;SDS011;3669;49.200;9.242;2023-06-26T02:34:33;5.53;;;5.10;;
7255;SDS011;3669;49.200;9.242;2023-06-26T02:37:00;5.03;;;4.63;;
7255;SDS011;3669;49.200;9.242;2023-06-26T02:39:29;5.68;;;5.18;;
7255;SDS011;3669;49.200;9.242;2023-06-26T02:41:56;5.72;;;5.22;;
7255;SDS011;3669;49.200;9.242;2023-06-26T02:44:23;5.57;;;5.18;;
7255;SDS011;3669;49.200;9.242;2023-06-26T02:46:50;5.28;;;4.88;;
7255;SDS011;3669;49.200;9.242;2023-06-26T02:49:17;5.38;;;4.97;;
7255;SDS011;3669;49.200;9.242;2023-06-26T02:51:44;5.05;;;4.65;;
7255;SDS011;3669;49.200;9.242;2023-06-26T02:54:12;5.55;;;5.00;;
7255;SDS011;3669;49.200;9.242;2023-06-26T02:56:39;5.28;;;4.88;;
7255;SDS011;3669;49.200;9.242;2023-06-26T02:59:06;5.43;;;5.03;;
7255;SDS011;3669;49.200;9.242;2023-06-26T03:01:33;5.35;;;4.88;;
7255;SDS011;3669;49.200;9.242;2023-06-26T03:04:00;5.50;;;5.10;;
7255;SDS011;3669;49.200;9.242;2023-06-26T03:06:27;5.10;;;4.70;;
7255;SDS011;3669;49.200;9.242;2023-06-26T03:08:54;5.50;;;5.00;;
7255;SDS011;3669;49.200;9.242;2023-06-26T03:11:21;8.32;;;7.72;;
7255;SDS011;3669;49.200;9.242;2023-06-26T03:13:48;5.65;;;5.10;;
7255;SDS011;3669;49.200;9.242;2023-06-26T03:16:16;5.47;;;5.07;;
7255;SDS011;3669;49.200;9.242;2023-06-26T03:18:43;5.75;;;5.35;;
7255;SDS011;3669;49.200;9.242;2023-06-26T03:21:10;5.47;;;5.07;;
7255;SDS011;3669;49.200;9.242;2023-06-26T03:23:37;5.60;;;5.10;;
7255;SDS011;3669;49.200;9.242;2023-06-26T03:26:05;5.70;;;5.20;;
7255;SDS011;3669;49.200;9.242;2023-06-26T03:28:32;5.13;;;4.72;;
7255;SDS011;3669;49.200;9.242;2023-06-26T03:30:59;5.85;;;5.35;;
7255;SDS011;3669;49.200;9.242;2023-06-26T03:33:26;5.88;;;5.47;;
7255;SDS011;3669;49.200;9.242;2023-06-26T03:35:52;5.75;;;5.35;;
7255;SDS011;3669;49.200;9.242;2023-06-26T03:38:21;5.85;;;5.35;;
7255;SDS011;3669;49.200;9.242;2023-06-26T03:40:49;6.40;;;5.90;;
7255;SDS011;3669;49.200;9.242;2023-06-26T03:43:16;14.85;;;14.05;;
7255;SDS011;3669;49.200;9.242;2023-06-26T03:45:43;21.30;;;20.23;;
7255;SDS011;3669;49.200;9.242;2023-06-26T03:48:10;23.92;;;22.63;;
7255;SDS011;3669;49.200;9.242;2023-06-26T03:50:37;24.13;;;22.77;;
7255;SDS011;3669;49.200;9.242;2023-06-26T03:53:04;23.02;;;21.90;;
7255;SDS011;3669;49.200;9.242;2023-06-26T03:55:31;20.95;;;19.95;;
7255;SDS011;3669;49.200;9.242;2023-06-26T03:57:59;23.45;;;22.15;;
7255;SDS011;3669;49.200;9.242;2023-06-26T04:00:26;9.80;;;9.10;;
7255;SDS011;3669;49.200;9.242;2023-06-26T04:02:54;7.10;;;6.60;;
7255;SDS011;3669;49.200;9.242;2023-06-26T04:05:21;5.50;;;5.07;;
7255;SDS011;3669;49.200;9.242;2023-06-26T04:07:51;5.72;;;5.22;;
7255;SDS011;3669;49.200;9.242;2023-06-26T04:10:18;5.90;;;5.32;;
7255;SDS011;3669;49.200;9.242;2023-06-26T04:12:47;5.80;;;5.28;;
7255;SDS011;3669;49.200;9.242;2023-06-26T04:15:14;5.90;;;5.40;;
7255;SDS011;3669;49.200;9.242;2023-06-26T04:17:41;5.63;;;5.13;;
7255;SDS011;3669;49.200;9.242;2023-06-26T04:20:08;5.28;;;4.88;;
7255;SDS011;3669;49.200;9.242;2023-06-26T04:22:35;5.57;;;5.18;;
7255;SDS011;3669;49.200;9.242;2023-06-26T04:25:03;5.75;;;5.25;;
7255;SDS011;3669;49.200;9.242;2023-06-26T04:27:30;5.55;;;5.13;;
7255;SDS011;3669;49.200;9.242;2023-06-26T04:29:57;5.43;;;5.03;;
7255;SDS011;3669;49.200;9.242;2023-06-26T04:32:24;6.22;;;5.72;;
7255;SDS011;3669;49.200;9.242;2023-06-26T04:34:51;6.43;;;5.82;;
7255;SDS011;3669;49.200;9.242;2023-06-26T04:37:19;6.45;;;5.95;;
7255;SDS011;3669;49.200;9.242;2023-06-26T04:39:46;6.78;;;6.18;;
7255;SDS011;3669;49.200;9.242;2023-06-26T04:42:13;6.75;;;6.18;;
7255;SDS011;3669;49.200;9.242;2023-06-26T04:44:40;6.38;;;5.78;;
7255;SDS011;3669;49.200;9.242;2023-06-26T04:47:07;6.75;;;6.25;;
7255;SDS011;3669;49.200;9.242;2023-06-26T04:49:35;5.90;;;5.40;;
7255;SDS011;3669;49.200;9.242;2023-06-26T04:52:02;6.07;;;5.65;;
7255;SDS011;3669;49.200;9.242;2023-06-26T04:54:29;5.95;;;5.45;;
7255;SDS011;3669;49.200;9.242;2023-06-26T04:56:56;6.97;;;6.40;;
7255;SDS011;3669;49.200;9.242;2023-06-26T04:59:25;6.15;;;5.65;;
7255;SDS011;3669;49.200;9.242;2023-06-26T05:01:52;6.20;;;5.70;;
7255;SDS011;3669;49.200;9.242;2023-06-26T05:04:20;6.47;;;5.88;;
7255;SDS011;3669;49.200;9.242;2023-06-26T05:06:47;6.43;;;5.93;;
7255;SDS011;3669;49.200;9.242;2023-06-26T05:09:14;6.25;;;5.70;;
7255;SDS011;3669;49.200;9.242;2023-06-26T05:11:41;6.45;;;5.95;;
7255;SDS011;3669;49.200;9.242;2023-06-26T05:14:08;6.10;;;5.60;;
7255;SDS011;3669;49.200;9.242;2023-06-26T05:16:35;6.63;;;6.03;;
7255;SDS011;3669;49.200;9.242;2023-06-26T05:19:02;6.03;;;5.53;;
7255;SDS011;3669;49.200;9.242;2023-06-26T05:21:29;12.45;;;11.65;;
7255;SDS011;3669;49.200;9.242;2023-06-26T05:23:57;6.57;;;5.97;;
7255;SDS011;3669;49.200;9.242;2023-06-26T05:26:24;6.50;;;6.00;;
7255;SDS011;3669;49.200;9.242;2023-06-26T05:28:52;6.22;;;5.72;;
7255;SDS011;3669;49.200;9.242;2023-06-26T05:31:19;6.63;;;6.10;;
7255;SDS011;3669;49.200;9.242;2023-06-26T05:33:46;6.88;;;6.28;;
7255;SDS011;3669;49.200;9.242;2023-06-26T05:36:13;6.10;;;5.60;;
7255;SDS011;3669;49.200;9.242;2023-06-26T05:38:42;6.47;;;5.97;;
7255;SDS011;3669;49.200;9.242;2023-06-26T05:41:10;6.47;;;5.68;;
7255;SDS011;3669;49.200;9.242;2023-06-26T05:43:37;6.63;;;6.03;;
7255;SDS011;3669;49.200;9.242;2023-06-26T05:46:04;6.32;;;5.72;;
7255;SDS011;3669;49.200;9.242;2023-06-26T05:48:31;6.55;;;5.95;;
7255;SDS011;3669;49.200;9.242;2023-06-26T05:50:58;12.63;;;11.77;;
7255;SDS011;3669;49.200;9.242;2023-06-26T05:53:25;14.10;;;12.95;;
7255;SDS011;3669;49.200;9.242;2023-06-26T05:55:52;19.58;;;18.50;;
7255;SDS011;3669;49.200;9.242;2023-06-26T05:58:19;17.45;;;16.38;;
7255;SDS011;3669;49.200;9.242;2023-06-26T06:00:47;25.30;;;24.05;;
7255;SDS011;3669;49.200;9.242;2023-06-26T06:03:14;22.20;;;20.92;;
7255;SDS011;3669;49.200;9.242;2023-06-26T06:05:40;10.77;;;10.02;;
7255;SDS011;3669;49.200;9.242;2023-06-26T06:08:07;6.80;;;6.18;;
7255;SDS011;3669;49.200;9.242;2023-06-26T06:10:34;6.43;;;5.80;;
7255;SDS011;3669;49.200;9.242;2023-06-26T06:13:01;7.25;;;6.63;;
7255;SDS011;3669;49.200;9.242;2023-06-26T06:15:28;7.25;;;6.55;;
7255;SDS011;3669;49.200;9.242;2023-06-26T06:17:55;7.15;;;6.45;;
7255;SDS011;3669;49.200;9.242;2023-06-26T06:20:22;6.63;;;6.03;;
7255;SDS011;3669;49.200;9.242;2023-06-26T06:22:49;6.95;;;5.80;;
7255;SDS011;3669;49.200;9.242;2023-06-26T06:25:16;6.80;;;6.18;;
7255;SDS011;3669;49.200;9.242;2023-06-26T06:27:44;7.15;;;6.43;;
7255;SDS011;3669;49.200;9.242;2023-06-26T06:30:11;7.20;;;6.07;;
7255;SDS011;3669;49.200;9.242;2023-06-26T06:32:38;6.97;;;6.38;;
7255;SDS011;3669;49.200;9.242;2023-06-26T06:35:05;7.63;;;6.95;;
7255;SDS011;3669;49.200;9.242;2023-06-26T06:37:36;7.15;;;6.25;;
7255;SDS011;3669;49.200;9.242;2023-06-26T06:40:04;6.70;;;6.10;;
7255;SDS011;3669;49.200;9.242;2023-06-26T06:42:32;7.43;;;6.75;;
7255;SDS011;3669;49.200;9.242;2023-06-26T06:44:59;6.80;;;6.20;;
7255;SDS011;3669;49.200;9.242;2023-06-26T06:47:27;7.03;;;6.43;;
7255;SDS011;3669;49.200;9.242;2023-06-26T06:49:54;7.95;;;7.15;;
7255;SDS011;3669;49.200;9.242;2023-06-26T06:52:21;7.30;;;6.60;;
7255;SDS011;3669;49.200;9.242;2023-06-26T06:54:55;7.43;;;6.82;;
7255;SDS011;3669;49.200;9.242;2023-06-26T06:57:24;7.63;;;6.80;;
7255;SDS011;3669;49.200;9.242;2023-06-26T06:59:52;8.05;;;7.05;;
7255;SDS011;3669;49.200;9.242;2023-06-26T07:02:19;6.68;;;6.07;;
7255;SDS011;3669;49.200;9.242;2023-06-26T07:04:46;7.20;;;6.53;;
7255;SDS011;3669;49.200;9.242;2023-06-26T07:07:13;7.78;;;6.72;;
7255;SDS011;3669;49.200;9.242;2023-06-26T07:09:40;7.10;;;6.50;;
7255;SDS011;3669;49.200;9.242;2023-06-26T07:12:08;8.20;;;7.40;;
7255;SDS011;3669;49.200;9.242;2023-06-26T07:14:35;7.55;;;6.90;;
7255;SDS011;3669;49.200;9.242;2023-06-26T07:17:02;8.32;;;6.88;;
7255;SDS011;3669;49.200;9.242;2023-06-26T07:19:29;8.23;;;6.97;;
7255;SDS011;3669;49.200;9.242;2023-06-26T07:21:56;8.07;;;7.22;;
7255;SDS011;3669;49.200;9.242;2023-06-26T07:24:23;7.75;;;7.05;;
7255;SDS011;3669;49.200;9.242;2023-06-26T07:26:51;8.15;;;7.40;;
7255;SDS011;3669;49.200;9.242;2023-06-26T07:29:18;7.85;;;7.07;;
7255;SDS011;3669;49.200;9.242;2023-06-26T07:31:45;7.40;;;6.70;;
7255;SDS011;3669;49.200;9.242;2023-06-26T07:34:13;8.38;;;7.63;;
7255;SDS011;3669;49.200;9.242;2023-06-26T07:36:40;7.40;;;6.63;;
7255;SDS011;3669;49.200;9.242;2023-06-26T07:39:07;8.00;;;7.30;;
7255;SDS011;3669;49.200;9.242;2023-06-26T07:41:34;8.30;;;7.40;;
7255;SDS011;3669;49.200;9.242;2023-06-26T07:44:02;7.35;;;6.57;;
7255;SDS011;3669;49.200;9.242;2023-06-26T07:46:29;7.60;;;6.88;;
7255;SDS011;3669;49.200;9.242;2023-06-26T07:48:56;7.28;;;6.65;;
7255;SDS011;3669;49.200;9.242;2023-06-26T07:51:23;7.43;;;6.70;;
7255;SDS011;3669;49.200;9.242;2023-06-26T07:53:50;7.28;;;6.57;;
7255;SDS011;3669;49.200;9.242;2023-06-26T07:56:17;7.57;;;6.88;;
7255;SDS011;3669;49.200;9.242;2023-06-26T07:58:46;7.05;;;6.35;;
7255;SDS011;3669;49.200;9.242;2023-06-26T08:01:13;8.10;;;6.82;;
7255;SDS011;3669;49.200;9.242;2023-06-26T08:03:40;16.90;;;15.77;;
7255;SDS011;3669;49.200;9.242;2023-06-26T08:06:07;26.05;;;24.73;;
7255;SDS011;3669;49.200;9.242;2023-06-26T08:08:34;22.15;;;20.95;;
7255;SDS011;3669;49.200;9.242;2023-06-26T08:11:01;22.45;;;21.23;;
7255;SDS011;3669;49.200;9.242;2023-06-26T08:13:28;22.20;;;20.95;;
7255;SDS011;3669;49.200;9.242;2023-06-26T08:15:55;17.90;;;16.80;;
7255;SDS011;3669;49.200;9.242;2023-06-26T08:18:21;11.45;;;10.68;;
7255;SDS011;3669;49.200;9.242;2023-06-26T08:20:48;7.05;;;6.45;;
7255;SDS011;3669;49.200;9.242;2023-06-26T08:23:15;6.97;;;6.38;;
7255;SDS011;3669;49.200;9.242;2023-06-26T08:25:42;6.85;;;6.15;;
7255;SDS011;3669;49.200;9.242;2023-06-26T08:28:09;6.90;;;6.32;;
7255;SDS011;3669;49.200;9.242;2023-06-26T08:30:36;7.72;;;7.00;;
7255;SDS011;3669;49.200;9.242;2023-06-26T08:33:03;6.97;;;6.38;;
7255;SDS011;3669;49.200;9.242;2023-06-26T08:35:31;7.35;;;6.65;;
7255;SDS011;3669;49.200;9.242;2023-06-26T08:37:58;6.72;;;6.13;;
7255;SDS011;3669;49.200;9.242;2023-06-26T08:40:25;6.47;;;5.97;;
7255;SDS011;3669;49.200;9.242;2023-06-26T08:42:53;6.72;;;6.13;;
7255;SDS011;3669;49.200;9.242;2023-06-26T08:45:20;6.97;;;6.38;;
7255;SDS011;3669;49.200;9.242;2023-06-26T08:47:47;6.82;;;6.13;;
7255;SDS011;3669;49.200;9.242;2023-06-26T08:50:15;6.65;;;6.15;;
7255;SDS011;3669;49.200;9.242;2023-06-26T08:52:54;6.80;;;6.10;;
7255;SDS011;3669;49.200;9.242;2023-06-26T08:55:24;6.13;;;5.63;;
7255;SDS011;3669;49.200;9.242;2023-06-26T08:57:53;6.45;;;5.85;;
7255;SDS011;3669;49.200;9.242;2023-06-26T09:00:20;6.68;;;6.07;;
7255;SDS011;3669;49.200;9.242;2023-06-26T09:02:47;7.00;;;6.30;;
7255;SDS011;3669;49.200;9.242;2023-06-26T09:05:14;6.63;;;6.07;;
7255;SDS011;3669;49.200;9.242;2023-06-26T09:07:41;6.35;;;5.85;;
7255;SDS011;3669;49.200;9.242;2023-06-26T09:10:09;6.00;;;5.50;;
7255;SDS011;3669;49.200;9.242;2023-06-26T09:12:36;6.25;;;5.65;;
7255;SDS011;3669;49.200;9.242;2023-06-26T09:15:04;6.75;;;6.22;;
7255;SDS011;3669;49.200;9.242;2023-06-26T09:17:38;6.38;;;5.85;;
7255;SDS011;3669;49.200;9.242;2023-06-26T09:20:07;6.07;;;5.57;;
7255;SDS011;3669;49.200;9.242;2023-06-26T09:22:37;5.32;;;4.93;;
7255;SDS011;3669;49.200;9.242;2023-06-26T09:25:05;6.00;;;5.50;;
7255;SDS011;3669;49.200;9.242;2023-06-26T09:27:32;6.15;;;5.63;;
7255;SDS011;3669;49.200;9.242;2023-06-26T09:30:00;6.05;;;5.43;;
7255;SDS011;3669;49.200;9.242;2023-06-26T09:32:28;6.25;;;5.75;;
7255;SDS011;3669;49.200;9.242;2023-06-26T09:34:55;6.55;;;5.95;;
7255;SDS011;3669;49.200;9.242;2023-06-26T09:37:22;5.70;;;5.20;;
7255;SDS011;3669;49.200;9.242;2023-06-26T09:39:50;5.80;;;5.30;;
7255;SDS011;3669;49.200;9.242;2023-06-26T09:42:18;5.90;;;5.40;;
7255;SDS011;3669;49.200;9.242;2023-06-26T09:44:46;5.55;;;5.15;;
7255;SDS011;3669;49.200;9.242;2023-06-26T09:47:20;5.95;;;5.43;;
7255;SDS011;3669;49.200;9.242;2023-06-26T09:49:47;6.60;;;6.00;;
7255;SDS011;3669;49.200;9.242;2023-06-26T09:52:16;5.80;;;5.30;;
7255;SDS011;3669;49.200;9.242;2023-06-26T09:54:44;5.78;;;5.28;;
7255;SDS011;3669;49.200;9.242;2023-06-26T09:57:12;6.18;;;5.57;;
7255;SDS011;3669;49.200;9.242;2023-06-26T09:59:39;6.20;;;5.70;;
7255;SDS011;3669;49.200;9.242;2023-06-26T10:02:07;15.88;;;14.93;;
7255;SDS011;3669;49.200;9.242;2023-06-26T10:04:35;18.67;;;17.70;;
7255;SDS011;3669;49.200;9.242;2023-06-26T10:07:02;40.10;;;38.22;;
7255;SDS011;3669;49.200;9.242;2023-06-26T10:09:31;26.55;;;25.13;;
7255;SDS011;3669;49.200;9.242;2023-06-26T10:12:01;17.13;;;16.13;;
7255;SDS011;3669;49.200;9.242;2023-06-26T10:14:35;18.88;;;17.90;;
7255;SDS011;3669;49.200;9.242;2023-06-26T10:17:04;15.40;;;14.60;;
7255;SDS011;3669;49.200;9.242;2023-06-26T10:19:33;8.73;;;8.10;;
7255;SDS011;3669;49.200;9.242;2023-06-26T10:21:59;5.97;;;5.47;;
7255;SDS011;3669;49.200;9.242;2023-06-26T10:24:29;6.03;;;5.43;;
7255;SDS011;3669;49.200;9.242;2023-06-26T10:27:03;6.15;;;5.55;;
7255;SDS011;3669;49.200;9.242;2023-06-26T10:29:31;6.40;;;5.80;;
7255;SDS011;3669;49.200;9.242;2023-06-26T10:31:59;6.00;;;5.50;;
7255;SDS011;3669;49.200;9.242;2023-06-26T10:34:27;6.47;;;5.88;;
7255;SDS011;3669;49.200;9.242;2023-06-26T10:37:04;6.80;;;6.30;;
7255;SDS011;3669;49.200;9.242;2023-06-26T10:39:48;7.22;;;6.15;;
7255;SDS011;3669;49.200;9.242;2023-06-26T10:42:18;6.30;;;5.63;;
7255;SDS011;3669;49.200;9.242;2023-06-26T10:44:47;6.43;;;5.93;;
7255;SDS011;3669;49.200;9.242;2023-06-26T10:47:30;6.35;;;5.80;;
7255;SDS011;3669;49.200;9.242;2023-06-26T10:50:15;6.20;;;5.70;;
7255;SDS011;3669;49.200;9.242;2023-06-26T10:52:46;6.75;;;6.13;;
7255;SDS011;3669;49.200;9.242;2023-06-26T10:55:32;7.03;;;6.38;;
7255;SDS011;3669;49.200;9.242;2023-06-26T10:58:00;6.72;;;6.13;;
7255;SDS011;3669;49.200;9.242;2023-06-26T11:00:31;6.93;;;6.28;;
7255;SDS011;3669;49.200;9.242;2023-06-26T11:02:58;6.43;;;5.82;;
7255;SDS011;3669;49.200;9.242;2023-06-26T11:05:27;6.70;;;6.10;;
7255;SDS011;3669;49.200;9.242;2023-06-26T11:08:04;6.82;;;6.22;;
7255;SDS011;3669;49.200;9.242;2023-06-26T11:13:17;6.65;;;6.05;;
7255;SDS011;3669;49.200;9.242;2023-06-26T11:15:45;6.40;;;5.80;;
7255;SDS011;3669;49.200;9.242;2023-06-26T11:18:13;6.68;;;6.18;;
7255;SDS011;3669;49.200;9.242;2023-06-26T11:20:40;6.85;;;6.25;;
7255;SDS011;3669;49.200;9.242;2023-06-26T11:23:08;6.80;;;6.20;;
7255;SDS011;3669;49.200;9.242;2023-06-26T11:25:36;6.97;;;6.28;;
7255;SDS011;3669;49.200;9.242;2023-06-26T11:28:04;7.28;;;6.68;;
7255;SDS011;3669;49.200;9.242;2023-06-26T11:30:31;7.00;;;6.40;;
7255;SDS011;3669;49.200;9.242;2023-06-26T11:33:05;7.18;;;5.85;;
7255;SDS011;3669;49.200;9.242;2023-06-26T11:35:33;7.20;;;6.50;;
7255;SDS011;3669;49.200;9.242;2023-06-26T11:38:01;6.85;;;6.35;;
7255;SDS011;3669;49.200;9.242;2023-06-26T11:40:35;7.57;;;6.18;;
7255;SDS011;3669;49.200;9.242;2023-06-26T11:43:02;7.50;;;6.25;;
7255;SDS011;3669;49.200;9.242;2023-06-26T11:45:30;6.40;;;5.60;;
7255;SDS011;3669;49.200;9.242;2023-06-26T11:47:59;7.15;;;6.45;;
7255;SDS011;3669;49.200;9.242;2023-06-26T11:50:26;6.88;;;5.97;;
7255;SDS011;3669;49.200;9.242;2023-06-26T11:52:54;6.45;;;5.95;;
7255;SDS011;3669;49.200;9.242;2023-06-26T11:55:24;6.65;;;5.95;;
7255;SDS011;3669;49.200;9.242;2023-06-26T11:57:55;6.57;;;5.97;;
7255;SDS011;3669;49.200;9.242;2023-06-26T12:00:23;6.70;;;5.93;;
7255;SDS011;3669;49.200;9.242;2023-06-26T12:02:50;6.13;;;5.63;;
7255;SDS011;3669;49.200;9.242;2023-06-26T12:05:17;14.65;;;13.73;;
7255;SDS011;3669;49.200;9.242;2023-06-26T12:07:47;20.02;;;18.98;;
7255;SDS011;3669;49.200;9.242;2023-06-26T12:10:15;22.08;;;20.90;;
7255;SDS011;3669;49.200;9.242;2023-06-26T12:12:43;24.45;;;22.95;;
7255;SDS011;3669;49.200;9.242;2023-06-26T12:15:13;26.23;;;24.73;;
7255;SDS011;3669;49.200;9.242;2023-06-26T12:17:41;22.13;;;21.02;;
7255;SDS011;3669;49.200;9.242;2023-06-26T12:20:19;22.00;;;20.80;;
7255;SDS011;3669;49.200;9.242;2023-06-26T12:22:47;26.60;;;25.13;;
7255;SDS011;3669;49.200;9.242;2023-06-26T12:25:14;29.02;;;27.45;;
7255;SDS011;3669;49.200;9.242;2023-06-26T12:27:41;11.55;;;10.80;;
7255;SDS011;3669;49.200;9.242;2023-06-26T12:30:08;7.55;;;6.82;;
7255;SDS011;3669;49.200;9.242;2023-06-26T12:32:35;7.07;;;6.47;;
7255;SDS011;3669;49.200;9.242;2023-06-26T12:35:02;6.78;;;6.10;;
7255;SDS011;3669;49.200;9.242;2023-06-26T12:37:29;7.18;;;6.47;;
7255;SDS011;3669;49.200;9.242;2023-06-26T12:40:17;7.30;;;6.60;;
7255;SDS011;3669;49.200;9.242;2023-06-26T12:42:45;7.47;;;6.78;;
7255;SDS011;3669;49.200;9.242;2023-06-26T12:45:12;8.45;;;6.28;;
7255;SDS011;3669;49.200;9.242;2023-06-26T12:47:40;7.40;;;6.70;;
7255;SDS011;3669;49.200;9.242;2023-06-26T12:50:07;6.97;;;6.38;;
7255;SDS011;3669;49.200;9.242;2023-06-26T12:52:34;6.80;;;6.20;;
7255;SDS011;3669;49.200;9.242;2023-06-26T12:55:01;7.00;;;6.50;;
7255;SDS011;3669;49.200;9.242;2023-06-26T12:57:28;7.40;;;6.70;;
7255;SDS011;3669;49.200;9.242;2023-06-26T12:59:55;7.95;;;6.43;;
7255;SDS011;3669;49.200;9.242;2023-06-26T13:02:22;7.25;;;6.60;;
7255;SDS011;3669;49.200;9.242;2023-06-26T13:04:49;7.03;;;6.38;;
7255;SDS011;3669;49.200;9.242;2023-06-26T13:07:17;7.22;;;6.53;;
7255;SDS011;3669;49.200;9.242;2023-06-26T13:09:44;7.35;;;6.70;;
7255;SDS011;3669;49.200;9.242;2023-06-26T13:12:13;7.35;;;6.75;;
7255;SDS011;3669;49.200;9.242;2023-06-26T13:14:41;7.97;;;7.03;;
7255;SDS011;3669;49.200;9.242;2023-06-26T13:17:08;6.90;;;6.30;;
7255;SDS011;3669;49.200;9.242;2023-06-26T13:19:35;7.13;;;6.53;;
7255;SDS011;3669;49.200;9.242;2023-06-26T13:22:17;7.30;;;6.60;;
7255;SDS011;3669;49.200;9.242;2023-06-26T13:24:44;7.10;;;6.40;;
7255;SDS011;3669;49.200;9.242;2023-06-26T13:27:12;6.60;;;6.10;;
7255;SDS011;3669;49.200;9.242;2023-06-26T13:29:39;6.78;;;6.25;;
7255;SDS011;3669;49.200;9.242;2023-06-26T13:32:06;7.07;;;6.38;;
7255;SDS011;3669;49.200;9.242;2023-06-26T13:34:33;6.63;;;5.95;;
7255;SDS011;3669;49.200;9.242;2023-06-26T13:37:00;6.25;;;5.65;;
7255;SDS011;3669;49.200;9.242;2023-06-26T13:39:27;6.68;;;6.07;;
7255;SDS011;3669;49.200;9.242;2023-06-26T13:41:54;6.38;;;5.85;;
7255;SDS011;3669;49.200;9.242;2023-06-26T13:44:22;7.00;;;6.07;;
7255;SDS011;3669;49.200;9.242;2023-06-26T13:46:49;6.13;;;5.63;;
7255;SDS011;3669;49.200;9.242;2023-06-26T13:49:16;6.38;;;5.88;;
7255;SDS011;3669;49.200;9.242;2023-06-26T13:51:43;6.13;;;5.55;;
7255;SDS011;3669;49.200;9.242;2023-06-26T13:54:13;6.40;;;5.72;;
7255;SDS011;3669;49.200;9.242;2023-06-26T13:56:40;6.22;;;5.72;;
7255;SDS011;3669;49.200;9.242;2023-06-26T13:59:07;6.53;;;5.60;;
7255;SDS011;3669;49.200;9.242;2023-06-26T14:01:34;5.47;;;5.05;;
7255;SDS011;3669;49.200;9.242;2023-06-26T14:04:01;6.03;;;5.45;;
7255;SDS011;3669;49.200;9.242;2023-06-26T14:06:28;5.20;;;4.70;;
7255;SDS011;3669;49.200;9.242;2023-06-26T14:08:58;5.57;;;5.07;;
7255;SDS011;3669;49.200;9.242;2023-06-26T14:11:26;4.97;;;4.57;;
7255;SDS011;3669;49.200;9.242;2023-06-26T14:13:53;6.38;;;5.38;;
7255;SDS011;3669;49.200;9.242;2023-06-26T14:16:20;5.30;;;4.80;;
7255;SDS011;3669;49.200;9.242;2023-06-26T14:18:47;5.30;;;4.80;;
7255;SDS011;3669;49.200;9.242;2023-06-26T14:21:15;6.55;;;4.88;;
7255;SDS011;3669;49.200;9.242;2023-06-26T14:23:42;5.47;;;4.97;;
7255;SDS011;3669;49.200;9.242;2023-06-26T14:26:10;5.07;;;4.53;;
7255;SDS011;3669;49.200;9.242;2023-06-26T14:28:37;4.97;;;4.57;;
7255;SDS011;3669;49.200;9.242;2023-06-26T14:31:05;5.38;;;4.63;;
7255;SDS011;3669;49.200;9.242;2023-06-26T14:33:32;4.78;;;4.38;;
7255;SDS011;3669;49.200;9.242;2023-06-26T14:35:59;4.95;;;4.20;;
7255;SDS011;3669;49.200;9.242;2023-06-26T14:38:26;4.78;;;4.38;;
7255;SDS011;3669;49.200;9.242;2023-06-26T14:40:52;12.93;;;12.23;;
7255;SDS011;3669;49.200;9.242;2023-06-26T14:43:19;20.05;;;19.00;;
7255;SDS011;3669;49.200;9.242;2023-06-26T14:45:46;17.70;;;16.65;;
7255;SDS011;3669;49.200;9.242;2023-06-26T14:48:13;22.23;;;20.83;;
7255;SDS011;3669;49.200;9.242;2023-06-26T14:50:40;19.63;;;18.60;;
7255;SDS011;3669;49.200;9.242;2023-06-26T14:53:07;17.85;;;16.83;;
7255;SDS011;3669;49.200;9.242;2023-06-26T14:55:34;10.15;;;9.55;;
7255;SDS011;3669;49.200;9.242;2023-06-26T14:58:00;4.55;;;4.15;;
7255;SDS011;3669;49.200;9.242;2023-06-26T15:00:27;5.15;;;4.28;;
7255;SDS011;3669;49.200;9.242;2023-06-26T15:02:54;4.43;;;4.00;;
7255;SDS011;3669;49.200;9.242;2023-06-26T15:05:24;5.07;;;4.57;;
7255;SDS011;3669;49.200;9.242;2023-06-26T15:07:51;4.97;;;4.57;;
7255;SDS011;3669;49.200;9.242;2023-06-26T15:10:18;5.28;;;4.78;;
7255;SDS011;3669;49.200;9.242;2023-06-26T15:12:47;5.22;;;4.72;;
7255;SDS011;3669;49.200;9.242;2023-06-26T15:15:15;7.18;;;5.45;;
7255;SDS011;3669;49.200;9.242;2023-06-26T15:17:43;5.43;;;4.93;;
7255;SDS011;3669;49.200;9.242;2023-06-26T15:20:10;11.13;;;10.43;;
7255;SDS011;3669;49.200;9.242;2023-06-26T15:22:37;6.47;;;5.88;;
7255;SDS011;3669;49.200;9.242;2023-06-26T15:25:04;6.25;;;5.57;;
7255;SDS011;3669;49.200;9.242;2023-06-26T15:27:32;6.03;;;5.53;;